sensor_id;sensor_type;location;lat;lon;timestamp;P1;durP1;ratioP1;P2;durP2;ratioP2
2320;SDS011;15376;48.540;9.268;2024-03-07T00:02:19;81.70;;;45.57;;
2320;SDS011;15376;48.540;9.268;2024-03-07T00:04:44;78.57;;;43.07;;
2320;SDS011;15376;48.540;9.268;2024-03-07T00:07:10;82.97;;;45.47;;
2320;SDS011;15376;48.540;9.268;2024-03-07T00:09:35;72.83;;;42.90;;
2320;SDS011;15376;48.540;9.268;2024-03-07T00:12:01;79.40;;;45.30;;
2320;SDS011;15376;48.540;9.268;2024-03-07T00:14:27;78.00;;;44.90;;
2320;SDS011;15376;48.540;9.268;2024-03-07T00:16:53;75.57;;;43.60;;
2320;SDS011;15376;48.540;9.268;2024-03-07T00:19:25;76.47;;;43.73;;
2320;SDS011;15376;48.540;9.268;2024-03-07T00:21:52;78.27;;;42.27;;
2320;SDS011;15376;48.540;9.268;2024-03-07T00:24:18;68.07;;;42.60;;
2320;SDS011;15376;48.540;9.268;2024-03-07T00:26:44;82.07;;;46.30;;
2320;SDS011;15376;48.540;9.268;2024-03-07T00:29:09;75.27;;;44.07;;
2320;SDS011;15376;48.540;9.268;2024-03-07T00:31:35;79.10;;;47.40;;
2320;SDS011;15376;48.540;9.268;2024-03-07T00:34:01;77.43;;;42.20;;
2320;SDS011;15376;48.540;9.268;2024-03-07T00:36:26;67.40;;;41.47;;
2320;SDS011;15376;48.540;9.268;2024-03-07T00:38:51;68.10;;;41.97;;
2320;SDS011;15376;48.540;9.268;2024-03-07T00:41:17;62.60;;;41.00;;
2320;SDS011;15376;48.540;9.268;2024-03-07T00:43:43;70.87;;;40.53;;
2320;SDS011;15376;48.540;9.268;2024-03-07T00:46:08;64.43;;;41.90;;
2320;SDS011;15376;48.540;9.268;2024-03-07T00:48:35;65.27;;;40.97;;
2320;SDS011;15376;48.540;9.268;2024-03-07T00:51:01;60.80;;;38.00;;
2320;SDS011;15376;48.540;9.268;2024-03-07T00:53:27;72.37;;;39.57;;
2320;SDS011;15376;48.540;9.268;2024-03-07T00:55:52;62.33;;;38.70;;
2320;SDS011;15376;48.540;9.268;2024-03-07T00:58:18;70.13;;;38.57;;
2320;SDS011;15376;48.540;9.268;2024-03-07T01:00:43;62.90;;;37.10;;
2320;SDS011;15376;48.540;9.268;2024-03-07T01:03:09;56.07;;;36.40;;
2320;SDS011;15376;48.540;9.268;2024-03-07T01:05:39;61.27;;;36.73;;
2320;SDS011;15376;48.540;9.268;2024-03-07T01:08:07;68.23;;;38.27;;
2320;SDS011;15376;48.540;9.268;2024-03-07T01:10:32;63.70;;;38.17;;
2320;SDS011;15376;48.540;9.268;2024-03-07T01:12:58;59.00;;;36.50;;
2320;SDS011;15376;48.540;9.268;2024-03-07T01:15:27;54.83;;;35.53;;
2320;SDS011;15376;48.540;9.268;2024-03-07T01:18:02;59.07;;;36.20;;
2320;SDS011;15376;48.540;9.268;2024-03-07T01:20:28;53.20;;;35.10;;
2320;SDS011;15376;48.540;9.268;2024-03-07T01:22:54;51.20;;;36.23;;
2320;SDS011;15376;48.540;9.268;2024-03-07T01:25:21;48.83;;;33.63;;
2320;SDS011;15376;48.540;9.268;2024-03-07T01:27:47;56.40;;;35.47;;
2320;SDS011;15376;48.540;9.268;2024-03-07T01:30:14;60.20;;;36.10;;
2320;SDS011;15376;48.540;9.268;2024-03-07T01:32:40;55.40;;;37.77;;
2320;SDS011;15376;48.540;9.268;2024-03-07T01:35:05;53.70;;;33.87;;
2320;SDS011;15376;48.540;9.268;2024-03-07T01:37:34;48.57;;;32.20;;
2320;SDS011;15376;48.540;9.268;2024-03-07T01:40:01;55.50;;;34.77;;
2320;SDS011;15376;48.540;9.268;2024-03-07T01:42:28;53.80;;;35.77;;
2320;SDS011;15376;48.540;9.268;2024-03-07T01:44:53;56.27;;;33.00;;
2320;SDS011;15376;48.540;9.268;2024-03-07T01:47:19;57.73;;;34.80;;
2320;SDS011;15376;48.540;9.268;2024-03-07T01:49:44;55.60;;;34.37;;
2320;SDS011;15376;48.540;9.268;2024-03-07T01:52:10;51.30;;;34.10;;
2320;SDS011;15376;48.540;9.268;2024-03-07T01:54:36;55.87;;;33.77;;
2320;SDS011;15376;48.540;9.268;2024-03-07T01:57:02;52.80;;;32.50;;
2320;SDS011;15376;48.540;9.268;2024-03-07T01:59:29;49.87;;;33.90;;
2320;SDS011;15376;48.540;9.268;2024-03-07T02:01:55;55.50;;;33.63;;
2320;SDS011;15376;48.540;9.268;2024-03-07T02:04:21;59.20;;;34.90;;
2320;SDS011;15376;48.540;9.268;2024-03-07T02:06:49;53.60;;;35.83;;
2320;SDS011;15376;48.540;9.268;2024-03-07T02:09:15;53.10;;;31.70;;
2320;SDS011;15376;48.540;9.268;2024-03-07T02:11:40;61.13;;;35.07;;
2320;SDS011;15376;48.540;9.268;2024-03-07T02:14:06;59.67;;;36.47;;
2320;SDS011;15376;48.540;9.268;2024-03-07T02:16:31;56.13;;;33.80;;
2320;SDS011;15376;48.540;9.268;2024-03-07T02:18:57;54.93;;;35.67;;
2320;SDS011;15376;48.540;9.268;2024-03-07T02:21:24;52.33;;;35.07;;
2320;SDS011;15376;48.540;9.268;2024-03-07T02:23:49;58.50;;;34.90;;
2320;SDS011;15376;48.540;9.268;2024-03-07T02:26:14;63.23;;;36.20;;
2320;SDS011;15376;48.540;9.268;2024-03-07T02:28:40;64.63;;;36.43;;
2320;SDS011;15376;48.540;9.268;2024-03-07T02:31:05;60.20;;;39.50;;
2320;SDS011;15376;48.540;9.268;2024-03-07T02:33:31;52.47;;;34.70;;
2320;SDS011;15376;48.540;9.268;2024-03-07T02:35:57;60.30;;;36.60;;
2320;SDS011;15376;48.540;9.268;2024-03-07T02:38:22;70.57;;;39.90;;
2320;SDS011;15376;48.540;9.268;2024-03-07T02:40:48;55.13;;;36.23;;
2320;SDS011;15376;48.540;9.268;2024-03-07T02:43:13;58.93;;;38.30;;
2320;SDS011;15376;48.540;9.268;2024-03-07T02:45:38;66.53;;;39.90;;
2320;SDS011;15376;48.540;9.268;2024-03-07T02:48:04;64.80;;;39.33;;
2320;SDS011;15376;48.540;9.268;2024-03-07T02:50:34;65.40;;;39.73;;
2320;SDS011;15376;48.540;9.268;2024-03-07T02:52:59;63.27;;;39.90;;
2320;SDS011;15376;48.540;9.268;2024-03-07T02:55:25;56.50;;;39.07;;
2320;SDS011;15376;48.540;9.268;2024-03-07T02:57:50;65.50;;;41.40;;
2320;SDS011;15376;48.540;9.268;2024-03-07T03:00:16;61.07;;;39.03;;
2320;SDS011;15376;48.540;9.268;2024-03-07T03:02:51;56.77;;;39.17;;
2320;SDS011;15376;48.540;9.268;2024-03-07T03:05:17;67.07;;;40.20;;
2320;SDS011;15376;48.540;9.268;2024-03-07T03:07:43;57.33;;;39.30;;
2320;SDS011;15376;48.540;9.268;2024-03-07T03:10:18;59.20;;;38.47;;
2320;SDS011;15376;48.540;9.268;2024-03-07T03:12:51;63.40;;;38.63;;
2320;SDS011;15376;48.540;9.268;2024-03-07T03:15:18;63.07;;;41.43;;
2320;SDS011;15376;48.540;9.268;2024-03-07T03:17:45;68.00;;;42.80;;
2320;SDS011;15376;48.540;9.268;2024-03-07T03:20:11;68.67;;;43.03;;
2320;SDS011;15376;48.540;9.268;2024-03-07T03:22:49;74.47;;;42.60;;
2320;SDS011;15376;48.540;9.268;2024-03-07T03:25:15;66.60;;;40.77;;
2320;SDS011;15376;48.540;9.268;2024-03-07T03:27:40;70.20;;;43.90;;
2320;SDS011;15376;48.540;9.268;2024-03-07T03:30:06;71.73;;;44.13;;
2320;SDS011;15376;48.540;9.268;2024-03-07T03:32:32;64.80;;;41.20;;
2320;SDS011;15376;48.540;9.268;2024-03-07T03:34:57;78.67;;;43.80;;
2320;SDS011;15376;48.540;9.268;2024-03-07T03:37:23;81.50;;;48.57;;
2320;SDS011;15376;48.540;9.268;2024-03-07T03:39:48;79.33;;;45.93;;
2320;SDS011;15376;48.540;9.268;2024-03-07T03:42:14;79.13;;;47.33;;
2320;SDS011;15376;48.540;9.268;2024-03-07T03:44:40;78.80;;;45.33;;
2320;SDS011;15376;48.540;9.268;2024-03-07T03:47:05;74.00;;;44.03;;
2320;SDS011;15376;48.540;9.268;2024-03-07T03:49:31;78.77;;;47.17;;
2320;SDS011;15376;48.540;9.268;2024-03-07T03:51:56;72.10;;;47.03;;
2320;SDS011;15376;48.540;9.268;2024-03-07T03:54:22;75.73;;;42.90;;
2320;SDS011;15376;48.540;9.268;2024-03-07T03:56:48;77.70;;;44.53;;
2320;SDS011;15376;48.540;9.268;2024-03-07T03:59:13;75.83;;;46.93;;
2320;SDS011;15376;48.540;9.268;2024-03-07T04:01:38;70.10;;;44.00;;
2320;SDS011;15376;48.540;9.268;2024-03-07T04:04:04;72.30;;;45.90;;
2320;SDS011;15376;48.540;9.268;2024-03-07T04:06:30;76.93;;;45.30;;
2320;SDS011;15376;48.540;9.268;2024-03-07T04:08:55;72.03;;;43.00;;
2320;SDS011;15376;48.540;9.268;2024-03-07T04:11:21;68.20;;;42.27;;
2320;SDS011;15376;48.540;9.268;2024-03-07T04:13:46;75.17;;;43.50;;
2320;SDS011;15376;48.540;9.268;2024-03-07T04:16:12;73.03;;;42.63;;
2320;SDS011;15376;48.540;9.268;2024-03-07T04:18:38;67.53;;;41.77;;
2320;SDS011;15376;48.540;9.268;2024-03-07T04:21:03;68.47;;;45.17;;
2320;SDS011;15376;48.540;9.268;2024-03-07T04:23:29;68.43;;;44.80;;
2320;SDS011;15376;48.540;9.268;2024-03-07T04:25:54;62.33;;;41.70;;
2320;SDS011;15376;48.540;9.268;2024-03-07T04:28:21;68.57;;;41.85;;
2320;SDS011;15376;48.540;9.268;2024-03-07T04:30:47;62.37;;;42.50;;
2320;SDS011;15376;48.540;9.268;2024-03-07T04:33:14;66.83;;;41.13;;
2320;SDS011;15376;48.540;9.268;2024-03-07T04:35:39;64.33;;;41.97;;
2320;SDS011;15376;48.540;9.268;2024-03-07T04:38:05;73.63;;;44.67;;
2320;SDS011;15376;48.540;9.268;2024-03-07T04:40:36;59.03;;;40.80;;
2320;SDS011;15376;48.540;9.268;2024-03-07T04:43:02;69.30;;;43.87;;
2320;SDS011;15376;48.540;9.268;2024-03-07T04:45:28;71.13;;;41.87;;
2320;SDS011;15376;48.540;9.268;2024-03-07T04:47:53;70.67;;;41.97;;
2320;SDS011;15376;48.540;9.268;2024-03-07T04:50:18;73.07;;;41.70;;
2320;SDS011;15376;48.540;9.268;2024-03-07T04:52:44;65.40;;;40.23;;
2320;SDS011;15376;48.540;9.268;2024-03-07T04:55:10;68.47;;;43.80;;
2320;SDS011;15376;48.540;9.268;2024-03-07T04:57:39;71.20;;;43.60;;
2320;SDS011;15376;48.540;9.268;2024-03-07T05:00:10;63.63;;;43.40;;
2320;SDS011;15376;48.540;9.268;2024-03-07T05:02:40;67.50;;;43.50;;
2320;SDS011;15376;48.540;9.268;2024-03-07T05:05:05;63.60;;;43.00;;
2320;SDS011;15376;48.540;9.268;2024-03-07T05:07:31;71.80;;;44.23;;
2320;SDS011;15376;48.540;9.268;2024-03-07T05:09:56;66.23;;;41.13;;
2320;SDS011;15376;48.540;9.268;2024-03-07T05:12:21;63.57;;;43.20;;
2320;SDS011;15376;48.540;9.268;2024-03-07T05:14:47;63.90;;;42.03;;
2320;SDS011;15376;48.540;9.268;2024-03-07T05:17:12;72.33;;;44.07;;
2320;SDS011;15376;48.540;9.268;2024-03-07T05:19:38;68.60;;;44.80;;
2320;SDS011;15376;48.540;9.268;2024-03-07T05:22:03;70.73;;;44.40;;
2320;SDS011;15376;48.540;9.268;2024-03-07T05:24:31;69.50;;;41.23;;
2320;SDS011;15376;48.540;9.268;2024-03-07T05:26:58;69.97;;;43.37;;
2320;SDS011;15376;48.540;9.268;2024-03-07T05:29:24;68.83;;;44.77;;
2320;SDS011;15376;48.540;9.268;2024-03-07T05:31:50;70.10;;;42.00;;
2320;SDS011;15376;48.540;9.268;2024-03-07T05:34:15;68.97;;;42.07;;
2320;SDS011;15376;48.540;9.268;2024-03-07T05:36:44;69.23;;;43.60;;
2320;SDS011;15376;48.540;9.268;2024-03-07T05:39:13;70.10;;;45.77;;
2320;SDS011;15376;48.540;9.268;2024-03-07T05:41:40;77.03;;;45.37;;
2320;SDS011;15376;48.540;9.268;2024-03-07T05:44:06;72.60;;;44.97;;
2320;SDS011;15376;48.540;9.268;2024-03-07T05:46:36;66.03;;;41.80;;
2320;SDS011;15376;48.540;9.268;2024-03-07T05:49:14;65.90;;;42.87;;
2320;SDS011;15376;48.540;9.268;2024-03-07T05:51:41;66.53;;;39.90;;
2320;SDS011;15376;48.540;9.268;2024-03-07T05:54:09;72.57;;;45.43;;
2320;SDS011;15376;48.540;9.268;2024-03-07T05:56:37;67.27;;;44.27;;
2320;SDS011;15376;48.540;9.268;2024-03-07T05:59:04;78.40;;;48.40;;
2320;SDS011;15376;48.540;9.268;2024-03-07T06:01:30;73.60;;;45.77;;
2320;SDS011;15376;48.540;9.268;2024-03-07T06:03:59;69.83;;;44.27;;
2320;SDS011;15376;48.540;9.268;2024-03-07T06:06:30;76.90;;;44.63;;
2320;SDS011;15376;48.540;9.268;2024-03-07T06:08:58;77.03;;;45.07;;
2320;SDS011;15376;48.540;9.268;2024-03-07T06:11:36;78.23;;;44.37;;
2320;SDS011;15376;48.540;9.268;2024-03-07T06:14:03;72.00;;;44.73;;
2320;SDS011;15376;48.540;9.268;2024-03-07T06:16:33;73.20;;;44.57;;
2320;SDS011;15376;48.540;9.268;2024-03-07T06:19:01;72.10;;;42.83;;
2320;SDS011;15376;48.540;9.268;2024-03-07T06:21:28;71.30;;;44.70;;
2320;SDS011;15376;48.540;9.268;2024-03-07T06:23:55;70.03;;;41.13;;
2320;SDS011;15376;48.540;9.268;2024-03-07T06:26:34;71.83;;;42.30;;
2320;SDS011;15376;48.540;9.268;2024-03-07T06:29:14;71.83;;;41.30;;
2320;SDS011;15376;48.540;9.268;2024-03-07T06:31:41;69.90;;;42.47;;
2320;SDS011;15376;48.540;9.268;2024-03-07T06:34:07;64.37;;;40.33;;
2320;SDS011;15376;48.540;9.268;2024-03-07T06:36:36;67.30;;;40.40;;
2320;SDS011;15376;48.540;9.268;2024-03-07T06:39:02;61.70;;;39.73;;
2320;SDS011;15376;48.540;9.268;2024-03-07T06:41:32;58.83;;;39.10;;
2320;SDS011;15376;48.540;9.268;2024-03-07T06:43:58;60.10;;;39.30;;
2320;SDS011;15376;48.540;9.268;2024-03-07T06:46:23;61.50;;;39.07;;
2320;SDS011;15376;48.540;9.268;2024-03-07T06:48:49;62.93;;;38.97;;
2320;SDS011;15376;48.540;9.268;2024-03-07T06:51:16;63.73;;;40.70;;
2320;SDS011;15376;48.540;9.268;2024-03-07T06:53:42;62.50;;;41.37;;
2320;SDS011;15376;48.540;9.268;2024-03-07T06:56:08;59.73;;;40.60;;
2320;SDS011;15376;48.540;9.268;2024-03-07T06:58:34;62.63;;;39.90;;
2320;SDS011;15376;48.540;9.268;2024-03-07T07:00:59;57.37;;;38.17;;
2320;SDS011;15376;48.540;9.268;2024-03-07T07:03:26;68.10;;;43.17;;
2320;SDS011;15376;48.540;9.268;2024-03-07T07:05:53;60.10;;;39.37;;
2320;SDS011;15376;48.540;9.268;2024-03-07T07:08:19;64.30;;;41.90;;
2320;SDS011;15376;48.540;9.268;2024-03-07T07:10:45;60.80;;;39.47;;
2320;SDS011;15376;48.540;9.268;2024-03-07T07:13:11;62.27;;;41.07;;
2320;SDS011;15376;48.540;9.268;2024-03-07T07:15:38;57.80;;;37.87;;
2320;SDS011;15376;48.540;9.268;2024-03-07T07:18:04;58.47;;;38.45;;
2320;SDS011;15376;48.540;9.268;2024-03-07T07:20:32;69.90;;;38.97;;
2320;SDS011;15376;48.540;9.268;2024-03-07T07:22:59;65.33;;;40.30;;
2320;SDS011;15376;48.540;9.268;2024-03-07T07:25:27;61.03;;;39.17;;
2320;SDS011;15376;48.540;9.268;2024-03-07T07:27:52;62.50;;;41.40;;
2320;SDS011;15376;48.540;9.268;2024-03-07T07:30:19;65.30;;;39.00;;
2320;SDS011;15376;48.540;9.268;2024-03-07T07:32:47;57.30;;;39.33;;
2320;SDS011;15376;48.540;9.268;2024-03-07T07:35:13;59.50;;;38.67;;
2320;SDS011;15376;48.540;9.268;2024-03-07T07:37:46;62.40;;;39.93;;
2320;SDS011;15376;48.540;9.268;2024-03-07T07:40:14;297.73;;;173.63;;
2320;SDS011;15376;48.540;9.268;2024-03-07T07:42:46;140.10;;;76.60;;
2320;SDS011;15376;48.540;9.268;2024-03-07T07:45:13;80.70;;;47.37;;
2320;SDS011;15376;48.540;9.268;2024-03-07T07:47:40;77.27;;;44.57;;
2320;SDS011;15376;48.540;9.268;2024-03-07T07:50:10;70.83;;;46.00;;
2320;SDS011;15376;48.540;9.268;2024-03-07T07:52:53;66.50;;;43.80;;
2320;SDS011;15376;48.540;9.268;2024-03-07T07:55:23;66.63;;;41.40;;
2320;SDS011;15376;48.540;9.268;2024-03-07T07:57:51;64.20;;;41.00;;
2320;SDS011;15376;48.540;9.268;2024-03-07T08:00:23;59.07;;;37.43;;
2320;SDS011;15376;48.540;9.268;2024-03-07T08:02:53;62.00;;;38.93;;
2320;SDS011;15376;48.540;9.268;2024-03-07T08:05:20;65.23;;;38.33;;
2320;SDS011;15376;48.540;9.268;2024-03-07T08:07:50;60.53;;;38.33;;
2320;SDS011;15376;48.540;9.268;2024-03-07T08:10:20;59.50;;;40.30;;
2320;SDS011;15376;48.540;9.268;2024-03-07T08:12:48;63.50;;;38.07;;
2320;SDS011;15376;48.540;9.268;2024-03-07T08:15:14;58.90;;;39.47;;
2320;SDS011;15376;48.540;9.268;2024-03-07T08:17:41;63.23;;;39.60;;
2320;SDS011;15376;48.540;9.268;2024-03-07T08:20:09;67.47;;;40.17;;
2320;SDS011;15376;48.540;9.268;2024-03-07T08:22:37;59.83;;;39.47;;
2320;SDS011;15376;48.540;9.268;2024-03-07T08:25:06;65.83;;;41.40;;
2320;SDS011;15376;48.540;9.268;2024-03-07T08:27:36;63.83;;;39.80;;
2320;SDS011;15376;48.540;9.268;2024-03-07T08:30:03;63.27;;;40.83;;
2320;SDS011;15376;48.540;9.268;2024-03-07T08:32:31;58.77;;;38.87;;
2320;SDS011;15376;48.540;9.268;2024-03-07T08:34:59;64.67;;;40.97;;
2320;SDS011;15376;48.540;9.268;2024-03-07T08:37:26;61.30;;;37.57;;
2320;SDS011;15376;48.540;9.268;2024-03-07T08:39:51;58.90;;;39.60;;
2320;SDS011;15376;48.540;9.268;2024-03-07T08:42:17;56.23;;;38.17;;
2320;SDS011;15376;48.540;9.268;2024-03-07T08:44:42;59.33;;;36.93;;
2320;SDS011;15376;48.540;9.268;2024-03-07T08:47:08;59.70;;;39.53;;
2320;SDS011;15376;48.540;9.268;2024-03-07T08:49:34;56.90;;;39.47;;
2320;SDS011;15376;48.540;9.268;2024-03-07T08:52:00;62.73;;;40.50;;
2320;SDS011;15376;48.540;9.268;2024-03-07T08:54:26;64.60;;;40.70;;
2320;SDS011;15376;48.540;9.268;2024-03-07T08:56:51;65.23;;;41.07;;
2320;SDS011;15376;48.540;9.268;2024-03-07T08:59:17;72.37;;;40.80;;
2320;SDS011;15376;48.540;9.268;2024-03-07T09:01:43;61.20;;;40.80;;
2320;SDS011;15376;48.540;9.268;2024-03-07T09:04:08;62.60;;;40.43;;
2320;SDS011;15376;48.540;9.268;2024-03-07T09:06:34;62.40;;;39.80;;
2320;SDS011;15376;48.540;9.268;2024-03-07T09:09:00;55.97;;;37.67;;
2320;SDS011;15376;48.540;9.268;2024-03-07T09:11:25;77.60;;;47.67;;
2320;SDS011;15376;48.540;9.268;2024-03-07T09:13:50;67.50;;;40.40;;
2320;SDS011;15376;48.540;9.268;2024-03-07T09:16:16;58.40;;;39.37;;
2320;SDS011;15376;48.540;9.268;2024-03-07T09:18:41;65.83;;;40.70;;
2320;SDS011;15376;48.540;9.268;2024-03-07T09:21:07;56.10;;;37.67;;
2320;SDS011;15376;48.540;9.268;2024-03-07T09:23:32;58.60;;;38.47;;
2320;SDS011;15376;48.540;9.268;2024-03-07T09:25:57;62.03;;;38.13;;
2320;SDS011;15376;48.540;9.268;2024-03-07T09:28:24;65.90;;;39.67;;
2320;SDS011;15376;48.540;9.268;2024-03-07T09:30:49;64.17;;;38.63;;
2320;SDS011;15376;48.540;9.268;2024-03-07T09:33:16;58.53;;;37.20;;
2320;SDS011;15376;48.540;9.268;2024-03-07T09:35:44;104.57;;;68.30;;
2320;SDS011;15376;48.540;9.268;2024-03-07T09:38:10;56.20;;;35.40;;
2320;SDS011;15376;48.540;9.268;2024-03-07T09:40:38;59.60;;;38.80;;
2320;SDS011;15376;48.540;9.268;2024-03-07T09:43:03;54.23;;;39.20;;
2320;SDS011;15376;48.540;9.268;2024-03-07T09:45:32;59.60;;;39.37;;
2320;SDS011;15376;48.540;9.268;2024-03-07T09:47:59;54.07;;;36.90;;
2320;SDS011;15376;48.540;9.268;2024-03-07T09:50:26;55.67;;;37.70;;
2320;SDS011;15376;48.540;9.268;2024-03-07T09:52:54;53.07;;;37.60;;
2320;SDS011;15376;48.540;9.268;2024-03-07T09:55:21;47.73;;;35.70;;
2320;SDS011;15376;48.540;9.268;2024-03-07T09:57:49;48.90;;;34.90;;
2320;SDS011;15376;48.540;9.268;2024-03-07T10:00:19;52.00;;;36.10;;
2320;SDS011;15376;48.540;9.268;2024-03-07T10:02:54;47.60;;;35.73;;
2320;SDS011;15376;48.540;9.268;2024-03-07T10:05:22;48.90;;;34.33;;
2320;SDS011;15376;48.540;9.268;2024-03-07T10:07:49;53.60;;;36.23;;
2320;SDS011;15376;48.540;9.268;2024-03-07T10:10:15;52.00;;;34.80;;
2320;SDS011;15376;48.540;9.268;2024-03-07T10:12:41;52.13;;;34.77;;
2320;SDS011;15376;48.540;9.268;2024-03-07T10:15:07;45.30;;;32.50;;
2320;SDS011;15376;48.540;9.268;2024-03-07T10:17:38;52.63;;;36.47;;
2320;SDS011;15376;48.540;9.268;2024-03-07T10:20:05;48.60;;;34.30;;
2320;SDS011;15376;48.540;9.268;2024-03-07T10:22:34;47.60;;;33.80;;
2320;SDS011;15376;48.540;9.268;2024-03-07T10:25:03;49.53;;;34.63;;
2320;SDS011;15376;48.540;9.268;2024-03-07T10:27:29;57.80;;;36.57;;
2320;SDS011;15376;48.540;9.268;2024-03-07T10:29:54;50.60;;;35.60;;
2320;SDS011;15376;48.540;9.268;2024-03-07T10:32:23;46.80;;;33.57;;
2320;SDS011;15376;48.540;9.268;2024-03-07T10:34:50;47.27;;;33.77;;
2320;SDS011;15376;48.540;9.268;2024-03-07T10:37:17;46.40;;;32.87;;
2320;SDS011;15376;48.540;9.268;2024-03-07T10:39:43;49.83;;;34.10;;
2320;SDS011;15376;48.540;9.268;2024-03-07T10:42:09;50.77;;;34.03;;
2320;SDS011;15376;48.540;9.268;2024-03-07T10:44:40;43.87;;;30.40;;
2320;SDS011;15376;48.540;9.268;2024-03-07T10:47:11;40.87;;;30.43;;
2320;SDS011;15376;48.540;9.268;2024-03-07T10:49:46;64.83;;;40.80;;
2320;SDS011;15376;48.540;9.268;2024-03-07T10:52:29;40.43;;;29.73;;
2320;SDS011;15376;48.540;9.268;2024-03-07T11:01:11;43.63;;;30.43;;
2320;SDS011;15376;48.540;9.268;2024-03-07T11:03:38;38.17;;;26.63;;
2320;SDS011;15376;48.540;9.268;2024-03-07T11:06:05;45.47;;;27.63;;
2320;SDS011;15376;48.540;9.268;2024-03-07T11:08:36;40.47;;;28.03;;
2320;SDS011;15376;48.540;9.268;2024-03-07T11:11:02;39.80;;;26.80;;
2320;SDS011;15376;48.540;9.268;2024-03-07T11:13:29;36.57;;;25.00;;
2320;SDS011;15376;48.540;9.268;2024-03-07T11:15:55;33.73;;;24.97;;
2320;SDS011;15376;48.540;9.268;2024-03-07T11:18:25;33.40;;;24.90;;
2320;SDS011;15376;48.540;9.268;2024-03-07T11:20:51;35.23;;;23.50;;
2320;SDS011;15376;48.540;9.268;2024-03-07T11:23:32;34.20;;;24.30;;
2320;SDS011;15376;48.540;9.268;2024-03-07T11:28:32;33.87;;;25.53;;
2320;SDS011;15376;48.540;9.268;2024-03-07T11:31:10;32.40;;;22.50;;
2320;SDS011;15376;48.540;9.268;2024-03-07T11:33:38;30.70;;;23.37;;
2320;SDS011;15376;48.540;9.268;2024-03-07T11:36:10;31.53;;;21.90;;
2320;SDS011;15376;48.540;9.268;2024-03-07T11:38:45;32.40;;;23.40;;
2320;SDS011;15376;48.540;9.268;2024-03-07T11:41:13;31.57;;;23.50;;
2320;SDS011;15376;48.540;9.268;2024-03-07T11:43:40;34.17;;;25.30;;
2320;SDS011;15376;48.540;9.268;2024-03-07T11:46:07;38.67;;;26.20;;
2320;SDS011;15376;48.540;9.268;2024-03-07T11:48:38;38.13;;;26.00;;
2320;SDS011;15376;48.540;9.268;2024-03-07T11:51:06;35.23;;;24.30;;
2320;SDS011;15376;48.540;9.268;2024-03-07T11:53:36;33.90;;;23.40;;
2320;SDS011;15376;48.540;9.268;2024-03-07T11:56:03;35.67;;;24.60;;
2320;SDS011;15376;48.540;9.268;2024-03-07T11:58:37;36.43;;;25.23;;
2320;SDS011;15376;48.540;9.268;2024-03-07T12:01:05;42.87;;;25.47;;
2320;SDS011;15376;48.540;9.268;2024-03-07T12:03:36;34.63;;;24.70;;
2320;SDS011;15376;48.540;9.268;2024-03-07T12:06:02;31.53;;;22.67;;
2320;SDS011;15376;48.540;9.268;2024-03-07T12:08:28;36.80;;;23.87;;
2320;SDS011;15376;48.540;9.268;2024-03-07T12:10:54;37.00;;;24.67;;
2320;SDS011;15376;48.540;9.268;2024-03-07T12:13:21;35.87;;;24.97;;
2320;SDS011;15376;48.540;9.268;2024-03-07T12:15:49;37.53;;;26.73;;
2320;SDS011;15376;48.540;9.268;2024-03-07T12:18:20;33.93;;;25.00;;
2320;SDS011;15376;48.540;9.268;2024-03-07T12:20:47;40.37;;;25.77;;
2320;SDS011;15376;48.540;9.268;2024-03-07T12:23:19;37.43;;;25.07;;
2320;SDS011;15376;48.540;9.268;2024-03-07T12:25:44;39.47;;;26.20;;
2320;SDS011;15376;48.540;9.268;2024-03-07T12:28:14;37.90;;;25.83;;
2320;SDS011;15376;48.540;9.268;2024-03-07T12:33:11;38.27;;;25.90;;
2320;SDS011;15376;48.540;9.268;2024-03-07T12:35:39;37.80;;;27.03;;
2320;SDS011;15376;48.540;9.268;2024-03-07T12:38:07;37.13;;;26.30;;
2320;SDS011;15376;48.540;9.268;2024-03-07T12:40:36;37.80;;;26.20;;
2320;SDS011;15376;48.540;9.268;2024-03-07T12:43:16;42.17;;;27.43;;
2320;SDS011;15376;48.540;9.268;2024-03-07T12:45:49;41.80;;;28.30;;
2320;SDS011;15376;48.540;9.268;2024-03-07T12:48:16;42.30;;;30.27;;
2320;SDS011;15376;48.540;9.268;2024-03-07T12:50:45;38.60;;;29.40;;
2320;SDS011;15376;48.540;9.268;2024-03-07T12:53:11;43.33;;;29.73;;
2320;SDS011;15376;48.540;9.268;2024-03-07T12:55:40;46.57;;;32.53;;
2320;SDS011;15376;48.540;9.268;2024-03-07T12:58:08;47.30;;;31.50;;
2320;SDS011;15376;48.540;9.268;2024-03-07T13:00:36;47.10;;;31.00;;
2320;SDS011;15376;48.540;9.268;2024-03-07T13:03:02;47.23;;;32.23;;
2320;SDS011;15376;48.540;9.268;2024-03-07T13:05:29;49.17;;;32.50;;
2320;SDS011;15376;48.540;9.268;2024-03-07T13:07:54;46.60;;;33.93;;
2320;SDS011;15376;48.540;9.268;2024-03-07T13:10:20;48.80;;;33.20;;
2320;SDS011;15376;48.540;9.268;2024-03-07T13:12:46;42.20;;;30.37;;
2320;SDS011;15376;48.540;9.268;2024-03-07T13:15:13;49.33;;;32.23;;
2320;SDS011;15376;48.540;9.268;2024-03-07T13:17:39;48.42;;;33.08;;
2320;SDS011;15376;48.540;9.268;2024-03-07T13:20:08;40.27;;;30.00;;
2320;SDS011;15376;48.540;9.268;2024-03-07T13:22:44;46.53;;;30.97;;
2320;SDS011;15376;48.540;9.268;2024-03-07T13:25:13;48.37;;;32.93;;
2320;SDS011;15376;48.540;9.268;2024-03-07T13:27:43;46.87;;;30.97;;
2320;SDS011;15376;48.540;9.268;2024-03-07T13:30:16;47.87;;;34.97;;
2320;SDS011;15376;48.540;9.268;2024-03-07T13:32:48;43.53;;;30.33;;
2320;SDS011;15376;48.540;9.268;2024-03-07T13:35:15;43.30;;;30.87;;
2320;SDS011;15376;48.540;9.268;2024-03-07T13:37:40;44.20;;;31.30;;
2320;SDS011;15376;48.540;9.268;2024-03-07T13:40:06;47.30;;;31.27;;
2320;SDS011;15376;48.540;9.268;2024-03-07T13:42:47;44.70;;;31.23;;
2320;SDS011;15376;48.540;9.268;2024-03-07T13:45:13;43.53;;;30.60;;
2320;SDS011;15376;48.540;9.268;2024-03-07T13:47:38;42.63;;;29.70;;
2320;SDS011;15376;48.540;9.268;2024-03-07T13:50:04;42.40;;;32.33;;
2320;SDS011;15376;48.540;9.268;2024-03-07T13:52:36;48.07;;;32.17;;
2320;SDS011;15376;48.540;9.268;2024-03-07T13:55:08;35.22;;;28.70;;
2320;SDS011;15376;48.540;9.268;2024-03-07T13:57:43;40.50;;;31.57;;
2320;SDS011;15376;48.540;9.268;2024-03-07T14:06:04;34.03;;;28.03;;
2320;SDS011;15376;48.540;9.268;2024-03-07T14:14:41;39.03;;;30.03;;
2320;SDS011;15376;48.540;9.268;2024-03-07T14:26:02;37.60;;;29.13;;
2320;SDS011;15376;48.540;9.268;2024-03-07T14:31:04;39.53;;;31.47;;
2320;SDS011;15376;48.540;9.268;2024-03-07T14:33:47;39.53;;;30.07;;
2320;SDS011;15376;48.540;9.268;2024-03-07T14:36:19;38.30;;;29.43;;
2320;SDS011;15376;48.540;9.268;2024-03-07T14:39:00;40.43;;;28.40;;
2320;SDS011;15376;48.540;9.268;2024-03-07T14:44:25;41.30;;;31.60;;
2320;SDS011;15376;48.540;9.268;2024-03-07T14:47:00;36.33;;;29.37;;
2320;SDS011;15376;48.540;9.268;2024-03-07T14:49:32;42.93;;;29.60;;
2320;SDS011;15376;48.540;9.268;2024-03-07T14:51:59;42.30;;;32.13;;
2320;SDS011;15376;48.540;9.268;2024-03-07T14:54:25;43.33;;;33.10;;
2320;SDS011;15376;48.540;9.268;2024-03-07T14:56:51;39.57;;;29.87;;
2320;SDS011;15376;48.540;9.268;2024-03-07T14:59:17;42.70;;;30.57;;
2320;SDS011;15376;48.540;9.268;2024-03-07T15:01:43;43.47;;;30.20;;
2320;SDS011;15376;48.540;9.268;2024-03-07T15:04:08;43.17;;;32.10;;
2320;SDS011;15376;48.540;9.268;2024-03-07T15:06:36;40.63;;;29.43;;
2320;SDS011;15376;48.540;9.268;2024-03-07T15:09:03;34.10;;;25.87;;
2320;SDS011;15376;48.540;9.268;2024-03-07T15:11:33;37.10;;;25.53;;
2320;SDS011;15376;48.540;9.268;2024-03-07T15:14:00;33.27;;;25.00;;